createdAt,value
2018-11-06T00:04:31.789Z,4.70
2018-11-06T00:09:36.950Z,4.80
2018-11-06T00:14:41.974Z,4.90
2018-11-06T00:19:46.233Z,4.80
2018-11-06T00:24:50.784Z,4.80
2018-11-06T00:29:55.874Z,5.00
2018-11-06T00:35:01.164Z,5.10
2018-11-06T00:40:06.543Z,5.20
2018-11-06T00:45:16.001Z,5.20
2018-11-06T00:50:20.557Z,4.90
2018-11-06T00:55:25.036Z,5.10
2018-11-06T01:00:29.950Z,5.50
2018-11-06T01:05:34.288Z,5.60
2018-11-06T01:10:38.653Z,5.80
2018-11-06T01:15:43.084Z,5.90
2018-11-06T01:20:47.606Z,6.10
2018-11-06T01:25:51.961Z,6.40
2018-11-06T01:30:56.287Z,6.50
2018-11-06T01:36:01.460Z,6.60
2018-11-06T01:41:06.029Z,6.70
2018-11-06T01:46:10.596Z,6.50
2018-11-06T01:51:14.921Z,6.90
2018-11-06T01:56:19.337Z,6.80
2018-11-06T02:01:24.554Z,6.90
2018-11-06T02:06:29.042Z,6.80
2018-11-06T02:11:34.793Z,6.80
2018-11-06T02:16:39.240Z,6.80
2018-11-06T02:21:43.934Z,6.70
2018-11-06T02:26:48.501Z,6.70
2018-11-06T02:31:53.134Z,6.50
2018-11-06T02:36:57.555Z,6.70
2018-11-06T02:42:02.707Z,6.60
2018-11-06T02:47:07.483Z,6.70
2018-11-06T02:52:11.794Z,6.80
2018-11-06T02:57:22.863Z,6.70
2018-11-06T03:02:27.159Z,6.70
2018-11-06T03:07:32.064Z,6.70
2018-11-06T03:12:36.727Z,6.70
2018-11-06T03:17:41.180Z,6.50
2018-11-06T03:22:46.193Z,6.40
2018-11-06T03:27:51.375Z,6.50
2018-11-06T03:32:55.807Z,6.40
2018-11-06T03:38:00.135Z,6.30
2018-11-06T03:43:05.685Z,6.10
2018-11-06T03:48:10.066Z,5.90
2018-11-06T03:53:14.879Z,5.80
2018-11-06T03:58:19.311Z,5.80
2018-11-06T04:03:23.834Z,5.80
2018-11-06T04:08:28.177Z,5.90
2018-11-06T04:13:32.471Z,5.80
2018-11-06T04:18:36.910Z,5.80
2018-11-06T04:23:41.513Z,5.80
2018-11-06T04:28:46.217Z,5.80
2018-11-06T04:33:50.873Z,5.80
2018-11-06T04:38:55.483Z,5.90
2018-11-06T04:44:00.586Z,5.90
2018-11-06T04:49:06.195Z,5.70
2018-11-06T04:54:10.785Z,5.60
2018-11-06T04:59:15.123Z,5.60
2018-11-06T05:04:19.627Z,5.70
2018-11-06T05:09:24.158Z,5.60
2018-11-06T05:14:28.489Z,5.60
2018-11-06T05:19:33.335Z,5.40
2018-11-06T05:24:37.979Z,5.50
2018-11-06T05:29:42.305Z,5.50
2018-11-06T05:34:46.623Z,5.50
2018-11-06T05:40:02.068Z,5.30
2018-11-06T05:45:06.694Z,5.20
2018-11-06T05:50:11.420Z,5.20
2018-11-06T05:55:16.409Z,5.10
2018-11-06T06:00:27.778Z,5.10
2018-11-06T06:05:32.141Z,5.20
2018-11-06T06:10:37.578Z,5.40
2018-11-06T06:15:42.030Z,5.60
2018-11-06T06:20:46.339Z,5.80
2018-11-06T06:25:50.607Z,5.90
2018-11-06T06:30:55.953Z,6.10
2018-11-06T06:36:00.472Z,6.40
2018-11-06T06:41:05.701Z,6.40
2018-11-06T06:46:13.427Z,6.50
2018-11-06T06:51:18.054Z,6.60
2018-11-06T06:56:22.390Z,6.80
2018-11-06T07:01:26.863Z,6.80
2018-11-06T07:12:00.354Z,6.80
2018-11-06T07:17:06.640Z,6.70
2018-11-06T07:22:11.000Z,6.80
2018-11-06T07:27:15.688Z,6.90
2018-11-06T07:32:24.835Z,7.10
2018-11-06T07:37:30.968Z,7.20
2018-11-06T07:42:35.487Z,7.60
2018-11-06T07:47:40.046Z,7.80
2018-11-06T07:52:44.929Z,7.90
2018-11-06T07:57:49.431Z,8.20
2018-11-06T08:02:53.967Z,8.40
2018-11-06T08:07:58.510Z,8.70
2018-11-06T08:13:03.398Z,8.90
2018-11-06T08:18:08.571Z,9.10
2018-11-06T08:23:13.349Z,9.20
2018-11-06T08:28:17.653Z,9.40
2018-11-06T08:33:22.691Z,9.60
2018-11-06T08:38:27.023Z,10.00
2018-11-06T08:43:31.449Z,10.20
2018-11-06T08:48:35.871Z,10.20
2018-11-06T08:53:40.309Z,10.50
2018-11-06T08:58:44.891Z,10.60
2018-11-06T09:03:49.610Z,10.90
2018-11-06T09:08:54.248Z,11.30
2018-11-06T09:13:59.251Z,11.40
2018-11-06T09:19:03.656Z,11.60
2018-11-06T09:24:08.136Z,11.90
2018-11-06T09:29:12.742Z,12.20
2018-11-06T09:34:17.993Z,12.20
2018-11-06T09:39:22.933Z,12.40
2018-11-06T09:44:27.358Z,12.70
2018-11-06T09:49:32.483Z,12.90
2018-11-06T09:54:36.932Z,13.50
2018-11-06T09:59:42.495Z,13.90
2018-11-06T10:04:47.011Z,14.20
2018-11-06T10:09:51.677Z,13.60
2018-11-06T10:14:56.772Z,13.20
2018-11-06T10:20:01.725Z,13.50
2018-11-06T10:25:07.600Z,14.00
2018-11-06T10:30:14.140Z,13.70
2018-11-06T10:35:18.514Z,13.40
2018-11-06T10:40:23.504Z,13.60
2018-11-06T10:45:29.229Z,14.10
2018-11-06T10:50:33.771Z,14.40
2018-11-06T10:55:38.671Z,14.40
2018-11-06T11:00:49.053Z,14.30
2018-11-06T11:05:53.638Z,14.10
2018-11-06T11:10:58.201Z,14.40
2018-11-06T11:16:02.635Z,14.60
2018-11-06T11:21:07.159Z,15.20
2018-11-06T11:26:11.537Z,15.40
2018-11-06T11:31:16.551Z,15.80
2018-11-06T11:36:20.930Z,15.80
2018-11-06T11:41:25.483Z,15.30
2018-11-06T11:46:31.284Z,15.40
2018-11-06T11:51:35.725Z,15.60
2018-11-06T11:56:40.674Z,15.10
2018-11-06T12:01:45.989Z,15.00
2018-11-06T12:06:51.294Z,14.50
2018-11-06T12:11:55.456Z,14.40
2018-11-06T12:17:00.714Z,14.60
2018-11-06T12:22:05.834Z,14.70
2018-11-06T12:27:10.488Z,15.50
2018-11-06T12:32:14.772Z,15.60
2018-11-06T12:37:19.959Z,15.20
2018-11-06T12:42:24.518Z,14.20
2018-11-06T12:47:29.463Z,13.80
2018-11-06T12:52:33.734Z,13.60
2018-11-06T12:57:38.505Z,13.40
2018-11-06T13:02:43.087Z,13.60
2018-11-06T13:07:47.572Z,13.70
2018-11-06T13:12:52.610Z,13.70
2018-11-06T13:17:57.154Z,13.60
2018-11-06T13:23:01.659Z,13.60
2018-11-06T13:28:06.398Z,13.70
2018-11-06T13:33:10.860Z,13.60
2018-11-06T13:38:15.870Z,13.60
2018-11-06T13:43:20.773Z,13.80
2018-11-06T13:48:25.135Z,14.00
2018-11-06T13:53:30.150Z,13.80
2018-11-06T13:58:35.180Z,13.60
2018-11-06T14:03:39.726Z,13.30
2018-11-06T14:08:44.605Z,13.10
2018-11-06T14:13:49.388Z,13.10
2018-11-06T14:18:54.067Z,13.10
2018-11-06T14:23:59.870Z,13.30
2018-11-06T14:29:04.465Z,13.10
2018-11-06T14:34:09.738Z,12.70
2018-11-06T14:39:14.720Z,12.70
2018-11-06T14:44:20.417Z,12.50
2018-11-06T14:49:25.526Z,12.50
2018-11-06T14:54:31.109Z,12.20
2018-11-06T14:59:35.773Z,12.00
2018-11-06T15:04:40.377Z,12.00
2018-11-06T15:09:50.970Z,12.20
2018-11-06T15:14:57.743Z,12.00
2018-11-06T15:20:03.528Z,11.80
2018-11-06T15:25:11.207Z,11.70
2018-11-06T15:30:16.985Z,11.80
2018-11-06T15:35:22.178Z,11.80
2018-11-06T15:40:32.014Z,11.80
2018-11-06T15:45:38.821Z,11.90
2018-11-06T15:50:44.089Z,12.60
2018-11-06T15:55:48.623Z,12.60
2018-11-06T16:00:53.199Z,12.30
2018-11-06T16:05:57.700Z,12.20
2018-11-06T16:11:02.444Z,12.00
2018-11-06T16:16:07.263Z,11.90
2018-11-06T16:21:12.035Z,11.80
2018-11-06T16:26:16.441Z,11.70
2018-11-06T16:31:20.779Z,11.70
2018-11-06T16:36:26.438Z,11.80
2018-11-06T16:41:31.044Z,12.00
2018-11-06T16:46:35.602Z,12.20
2018-11-06T16:51:40.139Z,12.10
2018-11-06T16:56:44.914Z,12.10
2018-11-06T17:01:56.447Z,12.00
2018-11-06T17:07:01.881Z,11.90
2018-11-06T17:12:06.343Z,12.00
2018-11-06T17:17:11.137Z,12.00
2018-11-06T17:22:15.589Z,12.00
2018-11-06T17:27:20.111Z,11.90
2018-11-06T17:32:24.663Z,12.00
2018-11-06T17:37:30.530Z,12.00
2018-11-06T17:42:35.727Z,12.10
2018-11-06T17:47:40.683Z,12.00
2018-11-06T17:52:45.255Z,12.10
2018-11-06T17:57:50.440Z,12.00
2018-11-06T18:02:55.484Z,11.90
2018-11-06T18:08:05.610Z,11.80
2018-11-06T18:13:10.271Z,11.60
2018-11-06T18:18:14.586Z,11.50
2018-11-06T18:23:19.884Z,11.20
2018-11-06T18:28:24.479Z,11.00
2018-11-06T18:33:29.161Z,10.90
2018-11-06T18:38:33.933Z,10.80
2018-11-06T18:43:38.512Z,10.60
2018-11-06T18:48:43.382Z,10.60
2018-11-06T18:53:49.050Z,10.50
2018-11-06T18:58:53.730Z,10.50
2018-11-06T19:03:58.337Z,10.30
2018-11-06T19:09:03.047Z,10.40
2018-11-06T19:14:07.342Z,10.60
2018-11-06T19:19:12.561Z,10.80
2018-11-06T19:24:17.084Z,11.00
2018-11-06T19:29:21.840Z,11.10
2018-11-06T19:34:26.443Z,11.20
2018-11-06T19:39:30.933Z,11.10
2018-11-06T19:44:35.486Z,11.10
2018-11-06T19:49:40.035Z,10.90
2018-11-06T19:54:44.588Z,10.50
2018-11-06T19:59:49.983Z,10.20
2018-11-06T20:04:55.520Z,10.00
2018-11-06T20:10:00.599Z,9.70
2018-11-06T20:15:06.530Z,9.50
2018-11-06T20:20:13.594Z,9.40
2018-11-06T20:25:18.803Z,9.30
2018-11-06T20:30:25.022Z,9.30
2018-11-06T20:35:29.640Z,9.30
2018-11-06T20:40:34.629Z,9.30
2018-11-06T20:45:39.148Z,9.20
2018-11-06T20:50:43.501Z,9.20
2018-11-06T20:55:48.781Z,9.20
2018-11-06T21:00:53.282Z,9.00
2018-11-06T21:05:57.969Z,9.10
2018-11-06T21:11:02.598Z,9.10
2018-11-06T21:16:07.536Z,9.00
2018-11-06T21:21:11.906Z,8.80
2018-11-06T21:26:16.555Z,8.60
2018-11-06T21:31:21.245Z,8.40
2018-11-06T21:36:26.400Z,8.40
2018-11-06T21:41:31.040Z,8.30
2018-11-06T21:46:36.570Z,8.20
2018-11-06T21:51:42.294Z,8.20
2018-11-06T21:56:47.534Z,8.00
2018-11-06T22:06:55.593Z,7.90
2018-11-06T22:12:07.717Z,7.80
2018-11-06T22:17:12.526Z,7.80
2018-11-06T22:22:17.462Z,7.70
2018-11-06T22:27:22.121Z,7.70
2018-11-06T22:32:27.538Z,7.70
2018-11-06T22:37:38.961Z,7.50
2018-11-06T22:42:43.800Z,7.30
2018-11-06T22:47:49.826Z,7.40
2018-11-06T22:52:55.293Z,7.30
2018-11-06T22:57:59.887Z,7.30
2018-11-06T23:03:08.982Z,7.40
2018-11-06T23:08:18.795Z,7.30
2018-11-06T23:13:24.819Z,7.10
2018-11-06T23:18:29.923Z,7.20
2018-11-06T23:23:34.835Z,7.20
2018-11-06T23:28:39.733Z,7.10
2018-11-06T23:33:44.989Z,7.30
2018-11-06T23:38:50.034Z,7.30
2018-11-06T23:43:54.685Z,7.20
2018-11-06T23:48:59.464Z,7.20
2018-11-06T23:54:04.677Z,7.20
2018-11-06T23:59:09.770Z,7.00
